createdAt,value
2023-03-22T00:00:58.477Z,7.55
2023-03-22T00:03:46.381Z,7.88
2023-03-22T00:06:37.771Z,4.82
2023-03-22T00:09:27.583Z,6.72
2023-03-22T00:12:17.366Z,5.38
2023-03-22T00:15:07.784Z,4.80
2023-03-22T00:17:55.588Z,5.82
2023-03-22T00:20:53.937Z,5.43
2023-03-22T00:23:41.349Z,5.15
2023-03-22T00:26:28.539Z,8.13
2023-03-22T00:29:16.074Z,5.90
2023-03-22T00:32:04.341Z,4.82
2023-03-22T00:34:51.578Z,4.43
2023-03-22T00:37:39.235Z,4.88
2023-03-22T00:40:26.576Z,6.28
2023-03-22T00:43:14.050Z,5.25
2023-03-22T00:46:03.769Z,8.05
2023-03-22T00:48:51.203Z,3.40
2023-03-22T00:51:38.304Z,4.22
2023-03-22T00:54:25.625Z,4.22
2023-03-22T00:57:14.214Z,4.05
2023-03-22T01:00:09.176Z,4.20
2023-03-22T01:02:59.901Z,4.85
2023-03-22T01:05:47.123Z,7.53
2023-03-22T01:08:34.341Z,4.40
2023-03-22T01:11:21.426Z,4.95
2023-03-22T01:14:09.793Z,4.68
2023-03-22T01:16:57.673Z,4.40
2023-03-22T01:19:44.926Z,7.38
2023-03-22T01:22:32.047Z,6.38
2023-03-22T01:25:19.515Z,4.93
2023-03-22T01:28:07.892Z,5.20
2023-03-22T01:30:58.698Z,6.25
2023-03-22T01:33:45.821Z,6.32
2023-03-22T01:36:33.021Z,5.50
2023-03-22T01:39:22.713Z,9.38
2023-03-22T01:42:16.155Z,8.02
2023-03-22T01:45:15.509Z,7.13
2023-03-22T01:48:08.492Z,6.15
2023-03-22T01:51:15.000Z,8.57
2023-03-22T01:54:06.797Z,7.72
2023-03-22T01:56:54.045Z,9.63
2023-03-22T01:59:42.933Z,7.43
2023-03-22T02:02:33.196Z,6.80
2023-03-22T02:05:23.296Z,7.93
2023-03-22T02:08:10.656Z,8.48
2023-03-22T02:10:57.937Z,11.48
2023-03-22T02:14:11.324Z,11.65
2023-03-22T02:17:15.329Z,9.50
2023-03-22T02:20:11.917Z,9.23
2023-03-22T02:23:28.131Z,6.85
2023-03-22T02:26:15.499Z,8.27
2023-03-22T02:29:34.571Z,7.18
2023-03-22T02:32:47.808Z,7.38
2023-03-22T02:36:11.510Z,11.68
2023-03-22T02:39:31.441Z,10.23
2023-03-22T02:42:39.967Z,8.77
2023-03-22T02:45:50.298Z,8.13
2023-03-22T02:49:03.561Z,12.30
2023-03-22T02:52:19.081Z,7.80
2023-03-22T02:55:28.680Z,6.65
2023-03-22T02:58:22.603Z,7.40
2023-03-22T03:01:12.254Z,6.78
2023-03-22T03:04:02.610Z,7.97
2023-03-22T03:06:52.518Z,7.75
2023-03-22T03:09:41.810Z,6.80
2023-03-22T03:12:30.311Z,5.55
2023-03-22T03:15:23.819Z,6.28
2023-03-22T03:18:40.951Z,7.55
2023-03-22T03:21:32.790Z,4.65
2023-03-22T03:24:53.443Z,5.07
2023-03-22T03:27:49.833Z,7.47
2023-03-22T03:30:50.334Z,4.88
2023-03-22T03:33:46.472Z,5.82
2023-03-22T03:36:37.907Z,6.68
2023-03-22T03:39:28.376Z,7.80
2023-03-22T03:42:17.857Z,4.97
2023-03-22T03:45:06.699Z,8.43
2023-03-22T03:47:58.963Z,7.38
2023-03-22T03:50:50.262Z,7.30
2023-03-22T03:53:37.482Z,6.97
2023-03-22T03:56:24.688Z,9.38
2023-03-22T03:59:12.415Z,6.00
2023-03-22T04:01:59.666Z,6.45
2023-03-22T04:04:47.316Z,5.60
2023-03-22T04:07:34.669Z,6.60
2023-03-22T04:10:22.304Z,6.85
2023-03-22T04:13:09.516Z,5.72
2023-03-22T04:15:58.113Z,6.28
2023-03-22T04:18:46.042Z,6.47
2023-03-22T04:21:37.535Z,6.88
2023-03-22T04:24:26.912Z,8.25
2023-03-22T04:27:14.105Z,9.25
2023-03-22T04:30:05.044Z,9.00
2023-03-22T04:32:52.227Z,6.68
2023-03-22T04:35:39.360Z,5.93
2023-03-22T04:38:26.717Z,9.80
2023-03-22T04:41:13.979Z,8.20
2023-03-22T04:44:04.048Z,6.80
2023-03-22T04:46:51.369Z,7.13
2023-03-22T04:49:38.931Z,11.10
2023-03-22T04:52:26.478Z,10.45
2023-03-22T04:55:16.010Z,11.82
2023-03-22T04:58:05.262Z,13.63
2023-03-22T05:00:58.546Z,6.45
2023-03-22T05:03:47.652Z,7.70
2023-03-22T05:06:34.902Z,13.25
2023-03-22T05:09:23.433Z,9.40
2023-03-22T05:12:11.457Z,9.93
2023-03-22T05:14:58.868Z,9.50
2023-03-22T05:17:48.524Z,13.20
2023-03-22T05:20:36.449Z,7.15
2023-03-22T05:23:27.292Z,8.13
2023-03-22T05:26:16.283Z,9.35
2023-03-22T05:29:04.486Z,6.80
2023-03-22T05:31:54.211Z,10.35
2023-03-22T05:34:42.726Z,7.20
2023-03-22T05:37:30.085Z,7.28
2023-03-22T05:40:19.874Z,10.90
2023-03-22T05:43:07.200Z,6.30
2023-03-22T05:45:54.956Z,8.65
2023-03-22T05:48:43.066Z,6.03
2023-03-22T05:51:32.765Z,9.52
2023-03-22T05:54:22.018Z,6.20
2023-03-22T05:57:09.221Z,6.90
2023-03-22T05:59:58.488Z,7.90
2023-03-22T06:02:52.402Z,8.95
2023-03-22T06:05:39.596Z,7.63
2023-03-22T06:08:28.117Z,10.25
2023-03-22T06:11:15.631Z,7.65
2023-03-22T06:14:02.963Z,8.82
2023-03-22T06:16:53.035Z,6.93
2023-03-22T06:19:40.256Z,8.32
2023-03-22T06:22:30.606Z,6.13
2023-03-22T06:25:17.888Z,7.85
2023-03-22T06:28:08.211Z,10.35
2023-03-22T06:31:04.022Z,9.55
2023-03-22T06:33:52.299Z,6.82
2023-03-22T06:36:42.359Z,8.18
2023-03-22T06:39:34.300Z,9.43
2023-03-22T06:42:23.926Z,7.25
2023-03-22T06:45:14.721Z,5.65
2023-03-22T06:48:01.839Z,5.60
2023-03-22T06:50:49.107Z,8.35
2023-03-22T06:53:38.897Z,5.60
2023-03-22T06:56:27.086Z,8.00
2023-03-22T06:59:20.270Z,3.88
2023-03-22T07:02:25.685Z,5.65
2023-03-22T07:05:14.977Z,6.38
2023-03-22T07:08:03.311Z,5.45
2023-03-22T07:10:51.416Z,5.00
2023-03-22T07:13:38.651Z,7.00
2023-03-22T07:16:25.849Z,8.35
2023-03-22T07:19:13.499Z,4.90
2023-03-22T07:22:05.880Z,4.95
2023-03-22T07:24:57.266Z,3.55
2023-03-22T07:27:48.105Z,7.50
2023-03-22T07:30:38.353Z,4.70
2023-03-22T07:33:27.836Z,6.72
2023-03-22T07:36:17.716Z,3.85
2023-03-22T07:39:07.417Z,5.25
2023-03-22T07:41:57.545Z,3.03
2023-03-22T07:44:47.428Z,3.47
2023-03-22T07:47:41.172Z,4.57
2023-03-22T07:50:28.791Z,3.13
2023-03-22T07:53:15.966Z,3.72
2023-03-22T07:56:09.706Z,2.30
2023-03-22T07:58:56.948Z,3.60
2023-03-22T08:01:44.933Z,2.47
2023-03-22T08:04:33.376Z,2.70
2023-03-22T08:07:21.656Z,4.43
2023-03-22T08:10:11.988Z,4.00
2023-03-22T08:13:01.766Z,4.07
2023-03-22T08:15:49.167Z,2.97
2023-03-22T08:18:36.451Z,8.60
2023-03-22T08:21:24.995Z,5.07
2023-03-22T08:24:17.748Z,4.43
2023-03-22T08:27:05.703Z,2.08
2023-03-22T08:29:53.008Z,4.97
2023-03-22T08:32:45.243Z,3.85
2023-03-22T08:35:33.164Z,4.45
2023-03-22T08:38:23.177Z,4.85
2023-03-22T08:41:11.203Z,4.43
2023-03-22T08:43:59.943Z,2.78
2023-03-22T08:46:47.087Z,3.55
2023-03-22T08:49:34.464Z,5.68
2023-03-22T08:52:24.353Z,1.90
2023-03-22T08:55:11.701Z,3.42
2023-03-22T08:57:59.847Z,1.95
2023-03-22T09:00:49.687Z,5.18
2023-03-22T09:03:37.128Z,2.92
2023-03-22T09:06:26.247Z,2.72
2023-03-22T09:09:16.026Z,2.28
2023-03-22T09:12:06.481Z,2.90
2023-03-22T09:14:56.860Z,3.10
2023-03-22T09:17:47.484Z,4.63
2023-03-22T09:20:34.843Z,1.30
2023-03-22T09:23:22.134Z,3.88
2023-03-22T09:26:12.261Z,4.50
2023-03-22T09:28:59.432Z,2.58
2023-03-22T09:31:51.378Z,2.10
2023-03-22T09:34:41.550Z,3.20
2023-03-22T09:37:31.673Z,1.50
2023-03-22T09:40:19.644Z,3.63
2023-03-22T09:43:09.813Z,2.08
2023-03-22T09:45:57.348Z,3.22
2023-03-22T09:48:49.880Z,3.40
2023-03-22T09:51:41.935Z,1.40
2023-03-22T09:54:40.407Z,3.45
2023-03-22T09:57:37.888Z,2.75
2023-03-22T10:00:35.050Z,1.52
2023-03-22T10:03:50.017Z,3.30
2023-03-22T10:06:37.431Z,1.83
2023-03-22T10:09:59.372Z,1.88
2023-03-22T10:13:17.213Z,1.63
2023-03-22T10:16:10.424Z,1.98
2023-03-22T10:19:45.809Z,1.83
2023-03-22T10:22:38.657Z,1.80
2023-03-22T10:25:36.545Z,1.67
2023-03-22T10:28:41.832Z,3.45
2023-03-22T10:31:30.852Z,1.00
2023-03-22T10:37:44.043Z,2.47
2023-03-22T10:40:36.642Z,1.33
2023-03-22T10:46:26.531Z,1.30
2023-03-22T10:49:29.978Z,3.05
2023-03-22T10:52:48.204Z,1.45
2023-03-22T10:55:45.834Z,1.23
2023-03-22T10:58:36.013Z,3.03
2023-03-22T11:01:47.126Z,0.93
2023-03-22T11:04:58.140Z,1.85
2023-03-22T11:07:46.774Z,1.20
2023-03-22T11:11:09.131Z,1.58
2023-03-22T11:14:28.523Z,0.73
2023-03-22T11:17:26.086Z,1.05
2023-03-22T11:20:19.094Z,1.75
2023-03-22T11:23:07.120Z,1.20
2023-03-22T11:25:58.846Z,4.28
2023-03-22T11:28:51.162Z,1.30
2023-03-22T11:36:27.798Z,2.13
2023-03-22T11:39:32.479Z,1.05
2023-03-22T11:48:53.120Z,2.08
2023-03-22T11:51:46.685Z,1.63
2023-03-22T11:54:46.024Z,1.77
2023-03-22T12:04:35.241Z,1.65
2023-03-22T12:10:31.360Z,0.98
2023-03-22T12:14:04.120Z,3.28
2023-03-22T12:16:59.338Z,3.15
2023-03-22T12:20:33.823Z,0.98
2023-03-22T12:26:48.305Z,0.63
2023-03-22T12:30:08.142Z,1.70
2023-03-22T12:33:24.381Z,2.60
2023-03-22T12:36:20.644Z,1.65
2023-03-22T12:39:13.490Z,1.25
2023-03-22T12:42:13.484Z,3.78
2023-03-22T12:45:22.603Z,0.88
2023-03-22T12:49:26.358Z,1.40
2023-03-22T12:52:45.968Z,0.93
2023-03-22T12:56:20.431Z,1.13
2023-03-22T12:59:49.833Z,0.60
2023-03-22T13:02:44.261Z,1.90
2023-03-22T13:05:39.302Z,1.27
2023-03-22T13:08:50.806Z,0.82
2023-03-22T13:12:08.697Z,1.52
2023-03-22T13:15:50.715Z,2.85
2023-03-22T13:18:38.739Z,2.63
2023-03-22T13:21:36.732Z,1.02
2023-03-22T13:24:40.165Z,2.30
2023-03-22T13:28:12.662Z,2.15
2023-03-22T13:31:09.071Z,1.97
2023-03-22T13:33:59.537Z,1.88
2023-03-22T13:36:56.801Z,3.58
2023-03-22T13:39:52.001Z,2.90
2023-03-22T13:42:42.825Z,1.20
2023-03-22T13:45:36.203Z,0.40
2023-03-22T13:48:43.914Z,1.95
2023-03-22T13:51:37.881Z,4.93
2023-03-22T13:55:13.820Z,0.73
2023-03-22T14:02:16.441Z,1.48
2023-03-22T14:05:29.108Z,1.65
2023-03-22T14:08:22.567Z,1.98
2023-03-22T14:11:34.894Z,3.80
2023-03-22T14:14:31.831Z,1.85
2023-03-22T14:17:58.875Z,1.80
2023-03-22T14:20:55.186Z,0.70
